Geneva, Kentucky
Current Conditions -  °F | °C
As of 2:54 AM on Wednesday 22 Oct 2014 (Local Time) from KEVV Reporting Station
Clear Clear  
Wind Chill: 42°   Ceiling: Unl
Heat Index: 45°   Visibility: 10mi
Dew Point: 41°   Wind: 6mph
Humidity: 86%   Direction: 20°NNE
Pressure: 30.22"   Gusts: NA
Location:  37.756°N, 87.7065°W
Report Text: KEVV 220754Z AUTO 02005KT 10SM CLR 07/05 A3022 RMK AO2 SLP232 T00720050
Loading
Personal Weather Stations






























Interactive Weather Map
Tropical Storm Tracking
New forecast layout! Learn more

10-Day Weather Forecast

Advertisements
Track Severe Weather on mobile